createdAt,value
2022-10-01T00:01:11.862Z,17.83
2022-10-01T00:03:39.594Z,18.33
2022-10-01T00:06:09.138Z,19.63
2022-10-01T00:08:38.301Z,18.67
2022-10-01T00:11:10.385Z,18.40
2022-10-01T00:13:38.253Z,18.88
2022-10-01T00:16:09.345Z,17.58
2022-10-01T00:18:38.241Z,19.25
2022-10-01T00:21:09.652Z,18.60
2022-10-01T00:23:37.733Z,18.65
2022-10-01T00:26:14.862Z,18.88
2022-10-01T00:28:42.871Z,18.55
2022-10-01T00:31:12.740Z,17.48
2022-10-01T00:33:40.493Z,18.13
2022-10-01T00:36:09.789Z,17.58
2022-10-01T00:38:38.185Z,16.95
2022-10-01T00:41:06.491Z,17.98
2022-10-01T00:43:35.620Z,17.42
2022-10-01T00:46:06.861Z,17.25
2022-10-01T00:48:41.136Z,17.07
2022-10-01T00:51:08.888Z,17.08
2022-10-01T00:53:37.811Z,18.02
2022-10-01T00:56:07.066Z,18.00
2022-10-01T00:58:34.819Z,18.10
2022-10-01T01:01:02.470Z,18.17
2022-10-01T01:03:30.402Z,17.92
2022-10-01T01:05:59.419Z,17.27
2022-10-01T01:08:27.050Z,17.85
2022-10-01T01:10:59.503Z,17.90
2022-10-01T01:13:34.423Z,16.92
2022-10-01T01:16:06.661Z,17.23
2022-10-01T01:21:20.888Z,16.55
2022-10-01T01:24:12.211Z,16.65
2022-10-01T01:26:54.528Z,16.80
2022-10-01T01:29:26.808Z,16.40
2022-10-01T01:31:56.554Z,15.40
2022-10-01T01:34:26.885Z,16.15
2022-10-01T01:36:59.291Z,15.63
2022-10-01T01:39:29.450Z,14.85
2022-10-01T01:42:01.193Z,14.82
2022-10-01T01:44:33.955Z,15.80
2022-10-01T01:47:03.249Z,15.38
2022-10-01T01:49:30.935Z,15.90
2022-10-01T01:52:02.717Z,15.57
2022-10-01T01:54:30.465Z,15.52
2022-10-01T01:56:59.209Z,15.65
2022-10-01T01:59:27.294Z,15.90
2022-10-01T02:01:56.374Z,15.70
2022-10-01T02:04:26.603Z,15.52
2022-10-01T02:07:07.751Z,15.15
2022-10-01T02:09:39.585Z,15.23
2022-10-01T02:12:13.840Z,15.55
2022-10-01T02:14:49.127Z,15.65
2022-10-01T02:17:23.666Z,15.05
2022-10-01T02:19:56.993Z,14.57
2022-10-01T02:22:27.892Z,13.93
2022-10-01T02:24:57.411Z,13.90
2022-10-01T02:27:28.946Z,14.13
2022-10-01T02:29:58.391Z,13.57
2022-10-01T02:32:28.819Z,14.68
2022-10-01T02:34:56.600Z,14.98
2022-10-01T02:37:25.916Z,15.77
2022-10-01T02:39:54.340Z,14.90
2022-10-01T02:42:23.375Z,14.07
2022-10-01T02:44:52.413Z,14.55
2022-10-01T02:47:22.723Z,14.55
2022-10-01T02:49:52.519Z,14.02
2022-10-01T02:52:23.708Z,13.90
2022-10-01T02:54:53.986Z,14.55
2022-10-01T02:57:23.987Z,14.38
2022-10-01T02:59:52.119Z,14.00
2022-10-01T03:02:20.515Z,13.68
2022-10-01T03:04:48.997Z,13.90
2022-10-01T03:07:18.571Z,14.48
2022-10-01T03:09:46.241Z,14.32
2022-10-01T03:12:13.903Z,13.57
2022-10-01T03:14:41.999Z,13.48
2022-10-01T03:17:09.638Z,13.07
2022-10-01T03:19:37.306Z,13.18
2022-10-01T03:22:05.253Z,13.13
2022-10-01T03:24:34.324Z,13.32
2022-10-01T03:27:02.130Z,12.10
2022-10-01T03:29:29.750Z,13.63
2022-10-01T03:31:57.439Z,13.23
2022-10-01T03:34:25.083Z,12.60
2022-10-01T03:36:52.971Z,12.40
2022-10-01T03:39:20.728Z,13.07
2022-10-01T03:41:49.808Z,12.82
2022-10-01T03:44:17.516Z,12.52
2022-10-01T03:46:45.165Z,12.68
2022-10-01T03:49:12.845Z,12.27
2022-10-01T03:51:40.485Z,12.27
2022-10-01T03:54:09.028Z,13.75
2022-10-01T03:56:36.903Z,12.07
2022-10-01T03:59:06.026Z,12.98
2022-10-01T04:01:34.070Z,12.70
2022-10-01T04:04:02.428Z,12.32
2022-10-01T04:06:30.025Z,12.00
2022-10-01T04:08:57.651Z,12.98
2022-10-01T04:11:25.736Z,11.60
2022-10-01T04:13:53.341Z,13.00
2022-10-01T04:16:22.412Z,13.77
2022-10-01T04:18:50.044Z,13.70
2022-10-01T04:21:18.593Z,13.05
2022-10-01T04:23:46.271Z,13.48
2022-10-01T04:26:13.988Z,12.65
2022-10-01T04:28:41.675Z,12.75
2022-10-01T04:31:27.504Z,12.63
2022-10-01T04:33:58.179Z,13.43
2022-10-01T04:36:26.305Z,13.40
2022-10-01T04:38:57.867Z,12.73
2022-10-01T04:41:27.304Z,12.90
2022-10-01T04:43:54.920Z,13.27
2022-10-01T04:46:22.646Z,13.20
2022-10-01T04:48:50.353Z,13.27
2022-10-01T04:51:19.390Z,13.55
2022-10-01T04:53:47.040Z,12.85
2022-10-01T04:56:14.713Z,13.43
2022-10-01T04:58:42.308Z,13.93
2022-10-01T05:01:09.954Z,16.77
2022-10-01T05:03:37.612Z,13.50
2022-10-01T05:06:05.308Z,14.13
2022-10-01T05:08:34.310Z,15.70
2022-10-01T05:11:03.162Z,14.13
2022-10-01T05:13:31.816Z,14.20
2022-10-01T05:15:59.659Z,13.82
2022-10-01T05:18:27.336Z,13.02
2022-10-01T05:20:54.957Z,13.75
2022-10-01T05:23:22.646Z,13.50
2022-10-01T05:25:51.678Z,13.23
2022-10-01T05:28:22.401Z,13.38
2022-10-01T05:30:50.921Z,13.95
2022-10-01T05:33:18.604Z,13.48
2022-10-01T05:35:46.209Z,13.30
2022-10-01T05:38:13.861Z,13.43
2022-10-01T05:40:41.489Z,14.02
2022-10-01T05:43:10.454Z,12.85
2022-10-01T05:45:38.156Z,13.38
2022-10-01T05:48:07.144Z,13.50
2022-10-01T05:50:39.187Z,13.10
2022-10-01T05:53:07.663Z,12.52
2022-10-01T05:55:35.817Z,13.60
2022-10-01T05:58:04.768Z,13.82
2022-10-01T06:00:34.384Z,13.73
2022-10-01T06:03:03.604Z,13.50
2022-10-01T06:05:32.858Z,13.48
2022-10-01T06:08:00.778Z,13.68
2022-10-01T06:10:30.229Z,14.05
2022-10-01T06:13:00.296Z,14.15
2022-10-01T06:15:27.890Z,13.73
2022-10-01T06:17:57.070Z,13.15
2022-10-01T06:20:24.739Z,12.70
2022-10-01T06:22:56.582Z,13.35
2022-10-01T06:25:24.331Z,13.25
2022-10-01T06:27:57.891Z,12.93
2022-10-01T06:30:27.052Z,12.95
2022-10-01T06:33:01.156Z,12.95
2022-10-01T06:35:28.826Z,12.05
2022-10-01T06:37:56.423Z,13.65
2022-10-01T06:40:24.132Z,13.07
2022-10-01T06:42:56.590Z,13.23
2022-10-01T06:45:24.468Z,12.02
2022-10-01T06:47:56.627Z,12.57
2022-10-01T06:52:51.152Z,12.63
2022-10-01T06:55:18.998Z,13.00
2022-10-01T06:57:46.885Z,11.23
2022-10-01T07:00:15.358Z,11.40
2022-10-01T07:02:43.056Z,11.45
2022-10-01T07:05:12.513Z,10.45
2022-10-01T07:07:40.173Z,11.13
2022-10-01T07:10:09.933Z,10.43
2022-10-01T07:12:37.974Z,10.18
2022-10-01T07:15:06.664Z,10.52
2022-10-01T07:17:34.460Z,9.93
2022-10-01T07:20:02.687Z,10.07
2022-10-01T07:22:31.670Z,10.60
2022-10-01T07:24:59.307Z,12.73
2022-10-01T07:27:27.050Z,9.90
2022-10-01T07:29:58.948Z,10.23
2022-10-01T07:32:27.066Z,9.20
2022-10-01T07:34:54.713Z,10.05
2022-10-01T07:37:22.988Z,10.13
2022-10-01T07:39:51.990Z,10.27
2022-10-01T07:42:19.639Z,10.75
2022-10-01T07:44:47.306Z,10.00
2022-10-01T07:47:17.039Z,9.65
2022-10-01T07:49:44.660Z,11.10
2022-10-01T07:52:13.507Z,12.57
2022-10-01T07:54:41.224Z,13.23
2022-10-01T07:57:10.200Z,11.45
2022-10-01T07:59:38.124Z,15.85
2022-10-01T08:02:05.784Z,14.55
2022-10-01T08:04:51.054Z,13.13
2022-10-01T08:07:18.687Z,12.38
2022-10-01T08:09:46.394Z,11.27
2022-10-01T08:12:17.748Z,10.10
2022-10-01T08:14:45.892Z,9.83
2022-10-01T08:17:13.480Z,9.20
2022-10-01T08:19:41.129Z,10.25
2022-10-01T08:22:17.629Z,14.55
2022-10-01T08:24:45.261Z,10.40
2022-10-01T08:27:12.961Z,13.18
2022-10-01T08:29:43.289Z,11.95
2022-10-01T08:32:11.043Z,9.82
2022-10-01T08:34:38.801Z,9.70
2022-10-01T08:37:06.486Z,9.55
2022-10-01T08:39:34.154Z,15.98
2022-10-01T08:42:07.175Z,11.80
2022-10-01T08:44:41.474Z,12.88
2022-10-01T08:47:14.425Z,16.50
2022-10-01T08:49:43.531Z,10.10
2022-10-01T08:52:17.127Z,9.88
2022-10-01T08:54:47.930Z,9.93
2022-10-01T08:57:17.309Z,14.70
2022-10-01T08:59:49.771Z,12.00
2022-10-01T09:02:23.707Z,9.70
2022-10-01T09:04:55.090Z,9.52
2022-10-01T09:07:47.933Z,11.07
2022-10-01T09:10:25.272Z,11.40
2022-10-01T09:13:06.422Z,11.73
2022-10-01T09:15:41.691Z,9.98
2022-10-01T09:18:17.100Z,10.18
2022-10-01T09:20:47.414Z,9.10
2022-10-01T09:23:20.478Z,9.25
2022-10-01T09:25:51.276Z,9.02
2022-10-01T09:28:21.544Z,9.68
2022-10-01T09:30:54.841Z,9.30
2022-10-01T09:33:27.802Z,9.18
2022-10-01T09:36:02.514Z,8.95
2022-10-01T09:38:36.415Z,9.48
2022-10-01T09:41:04.624Z,8.73
2022-10-01T09:43:33.754Z,9.40
2022-10-01T09:46:01.829Z,8.40
2022-10-01T09:48:34.215Z,8.95
2022-10-01T09:51:05.490Z,9.90
2022-10-01T09:53:36.564Z,9.20
2022-10-01T09:56:09.426Z,9.45
2022-10-01T09:58:39.982Z,9.38
2022-10-01T10:01:17.103Z,9.20
2022-10-01T10:03:54.625Z,9.48
2022-10-01T10:06:23.983Z,11.43
2022-10-01T10:08:52.623Z,10.60
2022-10-01T10:11:23.470Z,15.35
2022-10-01T10:13:52.644Z,13.93
2022-10-01T10:16:24.865Z,13.05
2022-10-01T10:21:26.821Z,15.60
2022-10-01T10:23:56.031Z,12.85
2022-10-01T10:26:29.840Z,11.50
2022-10-01T10:28:57.643Z,12.02
2022-10-01T10:31:27.315Z,12.82
2022-10-01T10:34:00.501Z,12.95
2022-10-01T10:36:31.372Z,11.70
2022-10-01T10:39:00.047Z,9.77
2022-10-01T10:41:29.068Z,9.80
2022-10-01T10:44:00.552Z,10.90
2022-10-01T10:47:00.016Z,10.68
2022-10-01T10:49:31.391Z,10.55
2022-10-01T10:52:01.046Z,10.77
2022-10-01T10:54:32.605Z,13.30
2022-10-01T10:57:02.316Z,11.13
2022-10-01T10:59:35.017Z,10.18
2022-10-01T11:02:04.392Z,9.95
2022-10-01T11:04:42.416Z,9.73
2022-10-01T11:07:11.056Z,10.23
2022-10-01T11:09:51.299Z,9.93
2022-10-01T11:12:27.066Z,10.15
2022-10-01T11:15:06.772Z,9.77
2022-10-01T11:17:55.167Z,9.48
2022-10-01T11:20:33.929Z,9.68
2022-10-01T11:23:12.973Z,9.80
2022-10-01T11:25:46.398Z,9.07
2022-10-01T11:28:29.440Z,10.05
2022-10-01T11:31:01.055Z,9.38
2022-10-01T11:33:36.078Z,9.73
2022-10-01T11:36:11.300Z,9.95
2022-10-01T11:38:46.755Z,9.90
2022-10-01T11:41:20.100Z,10.05
2022-10-01T11:43:52.452Z,9.73
2022-10-01T11:46:33.131Z,9.30
2022-10-01T11:49:18.036Z,10.30
2022-10-01T11:51:50.532Z,9.85
2022-10-01T11:54:22.245Z,9.63
2022-10-01T11:57:09.824Z,10.18
2022-10-01T11:59:40.108Z,9.38
2022-10-01T12:02:16.147Z,9.90
2022-10-01T12:04:48.618Z,10.02
2022-10-01T12:07:21.850Z,10.32
2022-10-01T12:09:57.498Z,10.27
2022-10-01T12:12:28.443Z,9.82
2022-10-01T12:15:06.453Z,9.75
2022-10-01T12:17:37.147Z,10.20
2022-10-01T12:20:13.393Z,9.77
2022-10-01T12:22:43.412Z,10.93
2022-10-01T12:25:12.997Z,19.55
2022-10-01T12:27:47.931Z,8.68
2022-10-01T12:30:18.666Z,8.73
2022-10-01T12:32:58.646Z,9.55
2022-10-01T12:35:38.360Z,8.70
2022-10-01T12:38:21.891Z,9.77
2022-10-01T12:40:55.157Z,9.82
2022-10-01T12:43:48.897Z,9.20
2022-10-01T12:46:25.745Z,9.35
2022-10-01T12:49:00.794Z,9.63
2022-10-01T12:51:46.756Z,8.63
2022-10-01T12:54:52.920Z,9.05
2022-10-01T12:57:33.063Z,8.60
2022-10-01T13:00:08.093Z,9.02
2022-10-01T13:02:58.223Z,8.02
2022-10-01T13:05:32.093Z,8.50
2022-10-01T13:08:08.892Z,7.80
2022-10-01T13:10:47.645Z,7.57
2022-10-01T13:13:18.198Z,7.90
2022-10-01T13:15:49.459Z,8.05
2022-10-01T13:18:27.217Z,8.63
2022-10-01T13:21:07.021Z,7.97
2022-10-01T13:23:41.552Z,8.13
2022-10-01T13:26:17.407Z,8.65
2022-10-01T13:29:01.798Z,8.20
2022-10-01T13:31:37.579Z,7.90
2022-10-01T13:34:25.940Z,7.90
2022-10-01T13:36:53.773Z,8.60
2022-10-01T13:39:22.799Z,8.90
2022-10-01T13:41:59.321Z,8.02
2022-10-01T13:44:33.277Z,8.38
2022-10-01T13:47:06.217Z,8.63
2022-10-01T13:49:34.901Z,8.20
2022-10-01T13:52:03.525Z,8.90
2022-10-01T13:54:39.837Z,9.18
2022-10-01T13:57:12.607Z,8.45
2022-10-01T13:59:40.285Z,8.20
2022-10-01T14:02:32.475Z,8.25
2022-10-01T14:05:15.999Z,8.77
2022-10-01T14:07:44.901Z,8.48
2022-10-01T14:10:15.468Z,7.78
2022-10-01T14:13:03.684Z,7.47
2022-10-01T14:15:53.554Z,8.35
2022-10-01T14:18:23.541Z,7.50
2022-10-01T14:20:57.271Z,8.50
2022-10-01T14:23:28.715Z,8.02
2022-10-01T14:26:00.556Z,8.75
2022-10-01T14:28:40.293Z,8.10
2022-10-01T14:31:10.691Z,8.32
2022-10-01T14:33:58.642Z,8.20
2022-10-01T14:36:29.618Z,9.00
2022-10-01T14:39:05.496Z,8.32
2022-10-01T14:41:35.034Z,9.25
2022-10-01T14:44:22.189Z,8.73
2022-10-01T14:46:50.281Z,9.43
2022-10-01T14:49:20.857Z,9.18
2022-10-01T14:51:53.198Z,8.52
2022-10-01T14:54:21.648Z,8.15
2022-10-01T14:56:50.030Z,8.60
2022-10-01T14:59:31.262Z,8.38
2022-10-01T15:02:01.310Z,8.15
2022-10-01T15:04:29.335Z,8.40
2022-10-01T15:07:04.958Z,8.05
2022-10-01T15:09:34.972Z,8.35
2022-10-01T15:12:03.837Z,8.20
2022-10-01T15:14:33.420Z,8.48
2022-10-01T15:17:04.784Z,8.27
2022-10-01T15:19:33.162Z,8.40
2022-10-01T15:22:02.276Z,8.82
2022-10-01T15:24:38.065Z,8.73
2022-10-01T15:27:07.066Z,8.73
2022-10-01T15:29:36.547Z,8.18
2022-10-01T15:32:05.690Z,8.02
2022-10-01T15:34:34.068Z,8.70
2022-10-01T15:37:02.236Z,8.50
2022-10-01T15:39:32.500Z,8.27
2022-10-01T15:42:02.511Z,8.50
2022-10-01T15:44:46.390Z,8.55
2022-10-01T15:47:27.953Z,7.70
2022-10-01T15:50:19.156Z,8.00
2022-10-01T15:52:53.386Z,8.38
2022-10-01T15:55:24.981Z,8.77
2022-10-01T15:57:56.743Z,8.02
2022-10-01T16:00:27.868Z,8.07
2022-10-01T16:02:56.606Z,8.52
2022-10-01T16:05:26.443Z,8.63
2022-10-01T16:07:58.342Z,8.40
2022-10-01T16:10:44.884Z,7.82
2022-10-01T16:13:32.008Z,7.78
2022-10-01T16:16:20.310Z,8.20
2022-10-01T16:18:53.919Z,7.72
2022-10-01T16:21:22.633Z,8.30
2022-10-01T16:23:52.930Z,7.45
2022-10-01T16:26:33.371Z,7.78
2022-10-01T16:29:02.867Z,9.00
2022-10-01T16:31:32.457Z,9.73
2022-10-01T16:34:00.226Z,8.00
2022-10-01T16:36:27.891Z,8.02
2022-10-01T16:38:56.265Z,7.72
2022-10-01T16:41:25.365Z,7.85
2022-10-01T16:43:54.737Z,7.97
2022-10-01T16:46:22.417Z,8.13
2022-10-01T16:48:52.379Z,9.40
2022-10-01T16:51:20.222Z,8.30
2022-10-01T16:53:47.941Z,8.48
2022-10-01T16:56:15.881Z,7.82
2022-10-01T16:58:45.162Z,8.15
2022-10-01T17:01:15.147Z,8.00
2022-10-01T17:03:43.252Z,8.38
2022-10-01T17:06:12.340Z,8.00
2022-10-01T17:08:39.994Z,7.57
2022-10-01T17:11:11.875Z,7.90
2022-10-01T17:13:40.252Z,8.73
2022-10-01T17:16:07.943Z,8.40
2022-10-01T17:18:35.666Z,7.82
2022-10-01T17:21:04.119Z,7.88
2022-10-01T17:23:34.858Z,8.38
2022-10-01T17:26:03.036Z,7.47
2022-10-01T17:28:31.256Z,7.90
2022-10-01T17:30:58.949Z,7.60
2022-10-01T17:33:27.360Z,8.07
2022-10-01T17:35:55.847Z,8.13
2022-10-01T17:38:24.007Z,8.05
2022-10-01T17:40:56.676Z,7.95
2022-10-01T17:43:24.858Z,8.23
2022-10-01T17:45:56.725Z,8.15
2022-10-01T17:48:25.090Z,7.97
2022-10-01T17:50:59.949Z,8.30
2022-10-01T17:53:34.059Z,7.97
2022-10-01T17:56:08.097Z,7.80
2022-10-01T17:58:35.922Z,8.05
2022-10-01T18:01:03.976Z,7.45
2022-10-01T18:03:31.658Z,8.38
2022-10-01T18:06:03.486Z,8.10
2022-10-01T18:08:51.253Z,7.95
2022-10-01T18:11:20.438Z,8.98
2022-10-01T18:13:48.626Z,8.18
2022-10-01T18:16:19.193Z,8.02
2022-10-01T18:21:35.018Z,7.72
2022-10-01T18:24:04.846Z,7.88
2022-10-01T18:26:34.491Z,8.20
2022-10-01T18:29:02.429Z,7.93
2022-10-01T18:31:34.665Z,8.30
2022-10-01T18:36:47.474Z,7.45
2022-10-01T18:39:19.029Z,8.07
2022-10-01T18:41:48.522Z,8.20
2022-10-01T18:44:20.237Z,7.65
2022-10-01T18:46:57.147Z,7.88
2022-10-01T18:49:48.970Z,8.38
2022-10-01T18:52:21.788Z,8.40
2022-10-01T18:55:08.838Z,7.60
2022-10-01T18:57:50.848Z,8.90
2022-10-01T19:00:20.874Z,9.32
2022-10-01T19:03:19.431Z,8.55
2022-10-01T19:06:03.544Z,8.60
2022-10-01T19:08:49.360Z,8.25
2022-10-01T19:11:20.900Z,8.00
2022-10-01T19:13:59.905Z,8.38
2022-10-01T19:16:38.149Z,7.70
2022-10-01T19:19:16.939Z,8.27
2022-10-01T19:21:49.346Z,9.07
2022-10-01T19:24:25.462Z,10.38
2022-10-01T19:26:57.660Z,11.63
2022-10-01T19:32:01.055Z,10.02
2022-10-01T19:34:31.607Z,9.55
2022-10-01T19:37:02.593Z,10.18
2022-10-01T19:39:34.406Z,10.30
2022-10-01T19:42:05.648Z,8.18
2022-10-01T19:44:40.875Z,7.63
2022-10-01T19:47:16.736Z,8.00
2022-10-01T19:49:45.820Z,7.60
2022-10-01T19:52:16.609Z,8.35
2022-10-01T19:54:46.629Z,7.93
2022-10-01T19:57:21.784Z,7.50
2022-10-01T19:59:50.940Z,7.35
2022-10-01T20:02:32.277Z,7.55
2022-10-01T20:05:03.551Z,7.47
2022-10-01T20:07:38.942Z,7.70
2022-10-01T20:10:12.378Z,8.45
2022-10-01T20:12:44.690Z,7.70
2022-10-01T20:15:21.770Z,7.40
2022-10-01T20:18:03.729Z,7.53
2022-10-01T20:20:35.233Z,7.82
2022-10-01T20:23:16.136Z,7.80
2022-10-01T20:25:47.842Z,7.65
2022-10-01T20:28:21.365Z,7.80
2022-10-01T20:30:58.278Z,7.63
2022-10-01T20:33:31.074Z,7.63
2022-10-01T20:36:04.372Z,7.55
2022-10-01T20:38:36.382Z,7.57
2022-10-01T20:41:06.682Z,7.32
2022-10-01T20:43:37.226Z,8.13
2022-10-01T20:46:10.490Z,7.40
2022-10-01T20:48:40.548Z,8.10
2022-10-01T20:51:13.724Z,7.70
2022-10-01T20:53:46.778Z,7.60
2022-10-01T20:56:17.776Z,7.78
2022-10-01T20:58:49.152Z,7.63
2022-10-01T21:01:21.446Z,8.23
2022-10-01T21:03:53.122Z,7.70
2022-10-01T21:06:25.709Z,9.45
2022-10-01T21:08:57.115Z,7.68
2022-10-01T21:11:30.532Z,7.67
2022-10-01T21:14:05.162Z,8.15
2022-10-01T21:16:53.902Z,7.78
2022-10-01T21:19:33.959Z,8.20
2022-10-01T21:22:12.581Z,8.10
2022-10-01T21:24:49.654Z,8.25
2022-10-01T21:27:34.201Z,7.70
2022-10-01T21:30:07.868Z,7.22
2022-10-01T21:32:53.030Z,7.60
2022-10-01T21:35:26.935Z,7.85
2022-10-01T21:38:00.961Z,7.80
2022-10-01T21:40:36.124Z,7.60
2022-10-01T21:43:11.311Z,7.78
2022-10-01T21:45:43.506Z,7.72
2022-10-01T21:53:37.993Z,8.07
2022-10-01T21:56:18.633Z,7.43
2022-10-01T21:59:03.082Z,8.10
2022-10-01T22:01:40.568Z,7.70
2022-10-01T22:04:17.241Z,7.57
2022-10-01T22:06:50.840Z,7.65
2022-10-01T22:09:25.713Z,7.75
2022-10-01T22:11:55.587Z,7.90
2022-10-01T22:14:25.355Z,8.05
2022-10-01T22:16:54.443Z,7.55
2022-10-01T22:19:29.318Z,8.45
2022-10-01T22:22:00.600Z,8.13
2022-10-01T22:24:31.256Z,7.67
2022-10-01T22:27:05.269Z,7.70
2022-10-01T22:29:37.364Z,7.68
2022-10-01T22:32:05.999Z,7.85
2022-10-01T22:34:38.792Z,7.50
2022-10-01T22:37:09.367Z,7.82
2022-10-01T22:39:40.885Z,7.93
2022-10-01T22:42:14.184Z,7.63
2022-10-01T22:44:41.890Z,8.10
2022-10-01T22:47:20.835Z,8.07
2022-10-01T22:50:01.491Z,7.68
2022-10-01T22:52:33.985Z,7.75
2022-10-01T22:55:11.281Z,8.13
2022-10-01T22:57:49.147Z,7.80
2022-10-01T23:00:17.274Z,8.05
2022-10-01T23:02:49.985Z,7.50
2022-10-01T23:05:35.436Z,7.97
2022-10-01T23:08:08.093Z,7.80
2022-10-01T23:10:42.167Z,7.68
2022-10-01T23:13:19.492Z,7.97
2022-10-01T23:15:53.258Z,7.85
2022-10-01T23:18:30.492Z,7.53
2022-10-01T23:21:09.781Z,7.85
2022-10-01T23:23:37.670Z,7.65
2022-10-01T23:26:27.911Z,7.97
2022-10-01T23:29:06.163Z,7.80
2022-10-01T23:31:37.957Z,7.80
2022-10-01T23:34:27.112Z,7.85
2022-10-01T23:37:05.548Z,7.70
2022-10-01T23:39:42.437Z,8.07
2022-10-01T23:42:16.644Z,7.97
2022-10-01T23:44:50.016Z,7.93
2022-10-01T23:47:22.641Z,7.97
2022-10-01T23:49:53.217Z,8.20
2022-10-01T23:52:27.421Z,8.02
2022-10-01T23:55:17.960Z,7.72
2022-10-01T23:57:45.311Z,8.30
